createdAt,value
2018-11-02T00:03:37.198Z,100587.45
2018-11-02T00:11:58.257Z,100604.27
2018-11-02T00:20:19.312Z,100612.14
2018-11-02T00:28:40.319Z,100626.02
2018-11-02T00:37:01.330Z,100629.59
2018-11-02T00:45:22.341Z,100639.41
2018-11-02T00:53:43.386Z,100640.95
2018-11-02T01:02:04.398Z,100639.36
2018-11-02T01:10:25.395Z,100610.40
2018-11-02T01:18:46.391Z,100630.11
2018-11-02T01:27:07.397Z,100653.22
2018-11-02T01:35:28.385Z,100671.70
2018-11-02T01:43:49.393Z,100685.53
2018-11-02T01:52:10.405Z,100690.70
2018-11-02T02:00:31.514Z,100698.59
2018-11-02T02:08:52.520Z,100706.51
2018-11-02T02:17:13.552Z,100728.19
2018-11-02T02:25:34.648Z,100738.54
2018-11-02T02:33:55.664Z,100726.08
2018-11-02T02:42:16.772Z,100749.56
2018-11-02T02:50:37.797Z,100743.49
2018-11-02T02:58:58.815Z,100754.08
2018-11-02T03:07:19.845Z,100779.22
2018-11-02T03:15:40.876Z,100792.94
2018-11-02T03:24:01.889Z,100805.34
2018-11-02T03:32:22.919Z,100812.61
2018-11-02T03:40:43.925Z,100814.16
2018-11-02T03:49:05.001Z,100821.34
2018-11-02T03:57:25.989Z,100855.64
2018-11-02T04:05:47.333Z,100864.07
2018-11-02T04:14:08.341Z,100884.05
2018-11-02T04:22:29.338Z,100896.27
2018-11-02T04:30:50.425Z,100913.08
2018-11-02T04:39:11.389Z,100944.54
2018-11-02T04:47:32.501Z,100958.84
2018-11-02T04:55:53.556Z,100966.70
2018-11-02T05:04:14.565Z,100991.48
2018-11-02T05:12:35.580Z,101010.69
2018-11-02T05:20:56.607Z,101046.58
2018-11-02T05:29:17.723Z,101059.38
2018-11-02T05:37:38.724Z,101085.93
2018-11-02T05:45:59.752Z,101106.48
2018-11-02T05:54:20.912Z,101119.21
2018-11-02T06:02:41.909Z,101157.12
2018-11-02T06:11:02.942Z,101169.23
2018-11-02T06:19:23.958Z,101169.34
2018-11-02T06:27:44.965Z,101181.38
2018-11-02T06:36:05.968Z,101208.28
2018-11-02T06:44:27.011Z,101231.97
2018-11-02T06:52:47.962Z,101254.93
2018-11-02T07:01:08.973Z,101274.72
2018-11-02T07:09:30.004Z,101292.61
2018-11-02T07:17:50.998Z,101308.11
2018-11-02T07:26:12.002Z,101323.16
2018-11-02T07:34:33.064Z,101339.24
2018-11-02T07:42:53.995Z,101340.76
2018-11-02T07:51:15.085Z,101358.66
2018-11-02T07:59:36.097Z,101358.91
2018-11-02T08:07:57.106Z,101373.42
2018-11-02T08:16:18.130Z,101391.53
2018-11-02T08:24:39.253Z,101388.52
2018-11-02T08:33:00.176Z,101393.90
2018-11-02T08:41:21.162Z,101413.51
2018-11-02T08:49:42.174Z,101409.87
2018-11-02T08:58:03.290Z,101421.25
2018-11-02T09:06:24.318Z,101425.42
2018-11-02T09:14:45.364Z,101429.74
2018-11-02T09:23:06.383Z,101449.21
2018-11-02T09:31:27.426Z,101463.65
2018-11-02T09:39:48.412Z,101471.05
2018-11-02T09:48:09.428Z,101490.97
2018-11-02T09:56:30.431Z,101519.29
2018-11-02T10:04:51.449Z,101523.55
2018-11-02T10:13:12.503Z,101526.23
2018-11-02T10:21:33.525Z,101536.03
2018-11-02T10:29:54.540Z,101552.66
2018-11-02T10:38:15.566Z,101560.61
2018-11-02T10:46:36.579Z,101560.73
2018-11-02T10:54:57.615Z,101577.63
2018-11-02T11:03:18.626Z,101585.52
2018-11-02T11:11:39.853Z,101591.86
2018-11-02T11:20:00.742Z,101596.50
2018-11-02T11:28:21.772Z,101607.43
2018-11-02T11:36:42.793Z,101606.00
2018-11-02T11:45:03.825Z,101595.23
2018-11-02T11:53:24.841Z,101598.86
2018-11-02T12:01:45.863Z,101609.78
2018-11-02T12:10:06.968Z,101617.38
2018-11-02T12:18:28.134Z,101627.98
2018-11-02T12:26:49.149Z,101636.80
2018-11-02T12:35:10.257Z,101644.25
2018-11-02T12:43:31.421Z,101655.41
2018-11-02T12:51:52.297Z,101645.64
2018-11-02T13:00:13.309Z,101654.80
2018-11-02T13:08:34.326Z,101660.47
2018-11-02T13:16:55.363Z,101669.08
2018-11-02T13:25:16.360Z,101672.02
2018-11-02T13:33:37.381Z,101678.95
2018-11-02T13:41:58.415Z,101663.33
2018-11-02T13:50:19.511Z,101675.51
2018-11-02T13:58:40.510Z,101683.83
2018-11-02T14:07:01.645Z,101703.20
2018-11-02T14:15:22.642Z,101729.23
2018-11-02T14:23:43.665Z,101742.20
2018-11-02T14:32:04.717Z,101762.69
2018-11-02T14:40:25.737Z,101779.39
2018-11-02T14:48:46.745Z,101797.25
2018-11-02T14:57:07.762Z,101815.78
2018-11-02T15:05:28.768Z,101821.06
2018-11-02T15:13:49.781Z,101837.45
2018-11-02T15:22:10.810Z,101852.55
2018-11-02T15:30:31.823Z,101859.19
2018-11-02T15:38:52.837Z,101858.77
2018-11-02T15:47:13.829Z,101863.34
2018-11-02T15:55:34.868Z,101880.17
2018-11-02T16:03:55.941Z,101881.34
2018-11-02T16:12:16.959Z,101888.68
2018-11-02T16:20:38.045Z,101887.20
2018-11-02T16:28:59.087Z,101897.70
2018-11-02T16:37:20.454Z,101909.37
2018-11-02T16:45:41.482Z,101934.73
2018-11-02T16:54:02.512Z,101958.44
2018-11-02T17:02:23.553Z,101971.23
2018-11-02T17:10:44.565Z,101981.36
2018-11-02T17:19:05.562Z,101999.61
2018-11-02T17:27:26.568Z,102019.22
2018-11-02T17:35:47.579Z,102040.34
2018-11-02T17:44:08.589Z,102043.02
2018-11-02T17:52:29.574Z,102050.75
2018-11-02T18:00:50.559Z,102074.45
2018-11-02T18:09:11.589Z,102080.21
2018-11-02T18:17:32.887Z,102092.50
2018-11-02T18:25:53.911Z,102100.81
2018-11-02T18:34:14.910Z,102115.22
2018-11-02T18:42:35.926Z,102126.34
2018-11-02T18:50:57.047Z,102128.99
2018-11-02T18:59:18.039Z,102146.28
2018-11-02T19:07:39.044Z,102175.19
2018-11-02T19:16:00.072Z,102184.21
2018-11-02T19:24:21.220Z,102193.34
2018-11-02T19:32:42.239Z,102198.24
2018-11-02T19:41:03.330Z,102200.56
2018-11-02T19:49:24.360Z,102204.08
2018-11-02T19:57:45.372Z,102202.51
2018-11-02T20:06:06.379Z,102221.67
2018-11-02T20:14:27.413Z,102221.98
2018-11-02T20:22:48.424Z,102242.84
2018-11-02T20:31:09.461Z,102243.53
2018-11-02T20:39:30.493Z,102247.03
2018-11-02T20:47:51.458Z,102241.89
2018-11-02T20:56:12.473Z,102234.30
2018-11-02T21:04:33.585Z,102253.30
2018-11-02T21:12:54.692Z,102259.55
2018-11-02T21:21:15.786Z,102270.95
2018-11-02T21:29:36.768Z,102268.43
2018-11-02T21:37:57.896Z,102283.41
2018-11-02T21:46:18.881Z,102280.25
2018-11-02T21:54:39.891Z,102280.48
2018-11-02T22:03:00.908Z,102287.48
2018-11-02T22:11:21.955Z,102293.14
2018-11-02T22:19:42.964Z,102298.00
2018-11-02T22:28:03.969Z,102304.08
2018-11-02T22:36:24.996Z,102293.03
2018-11-02T22:44:46.020Z,102299.77
2018-11-02T22:53:07.029Z,102304.41
2018-11-02T23:01:28.041Z,102305.38
2018-11-02T23:09:49.122Z,102316.83
2018-11-02T23:18:10.145Z,102325.34
2018-11-02T23:26:31.301Z,102318.41
2018-11-02T23:34:52.343Z,102329.38
2018-11-02T23:43:13.332Z,102325.13
2018-11-02T23:51:34.340Z,102309.69
2018-11-02T23:59:55.377Z,102315.48
